createdAt,value
2019-02-18T00:01:40.705Z,9.20
2019-02-18T00:04:07.685Z,9.20
2019-02-18T00:06:35.490Z,9.20
2019-02-18T00:09:02.212Z,9.20
2019-02-18T00:11:29.049Z,9.20
2019-02-18T00:13:55.763Z,9.10
2019-02-18T00:16:22.464Z,9.10
2019-02-18T00:18:49.087Z,9.00
2019-02-18T00:21:16.086Z,9.10
2019-02-18T00:23:43.131Z,9.10
2019-02-18T00:26:09.863Z,9.00
2019-02-18T00:28:37.087Z,9.00
2019-02-18T00:31:04.305Z,9.00
2019-02-18T00:33:31.279Z,9.00
2019-02-18T00:35:59.215Z,9.00
2019-02-18T00:38:25.943Z,8.90
2019-02-18T00:40:52.961Z,8.90
2019-02-18T00:43:19.675Z,8.90
2019-02-18T00:45:46.419Z,8.90
2019-02-18T00:48:13.191Z,8.90
2019-02-18T00:50:39.870Z,8.90
2019-02-18T00:53:06.618Z,8.90
2019-02-18T00:55:33.463Z,8.90
2019-02-18T00:58:01.191Z,8.90
2019-02-18T01:00:28.095Z,8.60
2019-02-18T01:02:54.942Z,8.80
2019-02-18T01:05:21.524Z,8.80
2019-02-18T01:07:49.050Z,8.80
2019-02-18T01:10:15.692Z,8.80
2019-02-18T01:15:21.354Z,8.40
2019-02-18T01:17:48.048Z,8.60
2019-02-18T01:20:14.680Z,8.70
2019-02-18T01:22:43.094Z,8.70
2019-02-18T01:25:09.832Z,8.70
2019-02-18T01:27:36.619Z,8.30
2019-02-18T01:30:04.782Z,8.70
2019-02-18T01:32:31.797Z,8.60
2019-02-18T01:34:58.610Z,8.60
2019-02-18T01:37:25.421Z,8.60
2019-02-18T01:39:52.145Z,8.60
2019-02-18T01:42:19.976Z,8.60
2019-02-18T01:44:47.779Z,8.60
2019-02-18T01:47:14.846Z,8.60
2019-02-18T01:49:41.907Z,8.60
2019-02-18T01:52:09.021Z,8.60
2019-02-18T01:54:35.654Z,8.50
2019-02-18T01:57:03.996Z,8.50
2019-02-18T01:59:31.127Z,8.50
2019-02-18T02:01:57.700Z,8.50
2019-02-18T02:04:24.429Z,8.50
2019-02-18T02:06:51.165Z,8.50
2019-02-18T02:09:17.870Z,8.40
2019-02-18T02:11:44.457Z,8.40
2019-02-18T02:14:11.143Z,8.40
2019-02-18T02:16:37.739Z,8.40
2019-02-18T02:19:04.738Z,8.40
2019-02-18T02:21:32.654Z,8.40
2019-02-18T02:24:00.523Z,8.40
2019-02-18T02:26:27.595Z,8.10
2019-02-18T02:28:54.156Z,8.40
2019-02-18T02:31:20.785Z,8.40
2019-02-18T02:33:47.409Z,8.30
2019-02-18T02:36:14.484Z,8.30
2019-02-18T02:38:41.309Z,8.30
2019-02-18T02:41:07.893Z,8.30
2019-02-18T02:43:35.094Z,8.30
2019-02-18T02:46:01.854Z,8.30
2019-02-18T02:48:28.617Z,8.30
2019-02-18T02:50:55.213Z,8.30
2019-02-18T02:53:21.861Z,8.20
2019-02-18T02:55:50.368Z,8.20
2019-02-18T02:58:17.066Z,8.20
2019-02-18T03:00:44.087Z,8.20
2019-02-18T03:03:10.690Z,8.20
2019-02-18T03:05:37.313Z,8.20
2019-02-18T03:08:03.945Z,8.20
2019-02-18T03:10:30.580Z,8.20
2019-02-18T03:12:57.550Z,8.10
2019-02-18T03:15:24.188Z,8.10
2019-02-18T03:17:50.845Z,8.10
2019-02-18T03:20:17.623Z,8.10
2019-02-18T03:22:46.143Z,8.10
2019-02-18T03:25:14.147Z,8.10
2019-02-18T03:27:40.710Z,7.70
2019-02-18T03:30:07.435Z,8.10
2019-02-18T03:32:35.923Z,8.00
2019-02-18T03:35:02.502Z,8.00
2019-02-18T03:37:29.413Z,8.00
2019-02-18T03:39:56.745Z,8.30
2019-02-18T03:42:23.493Z,8.00
2019-02-18T03:44:50.232Z,8.00
2019-02-18T03:47:16.912Z,8.00
2019-02-18T03:49:43.982Z,8.00
2019-02-18T03:52:10.730Z,8.00
2019-02-18T03:54:37.363Z,8.00
2019-02-18T03:57:06.392Z,7.90
2019-02-18T03:59:33.123Z,7.90
2019-02-18T04:01:59.768Z,7.90
2019-02-18T04:04:26.402Z,7.90
2019-02-18T04:06:53.326Z,7.90
2019-02-18T04:09:20.067Z,7.90
2019-02-18T04:11:46.905Z,7.80
2019-02-18T04:14:13.546Z,7.80
2019-02-18T04:16:41.820Z,7.80
2019-02-18T04:19:09.805Z,7.80
2019-02-18T04:21:36.643Z,7.80
2019-02-18T04:24:03.324Z,7.80
2019-02-18T04:26:30.174Z,7.80
2019-02-18T04:28:56.968Z,7.80
2019-02-18T04:31:23.903Z,7.70
2019-02-18T04:33:50.580Z,7.80
2019-02-18T04:36:17.253Z,7.70
2019-02-18T04:38:53.763Z,7.70
2019-02-18T04:41:12.437Z,7.70
2019-02-18T04:43:42.187Z,7.70
2019-02-18T04:46:09.383Z,7.70
2019-02-18T04:48:36.111Z,7.70
2019-02-18T04:51:02.687Z,7.70
2019-02-18T04:53:30.665Z,7.30
2019-02-18T04:55:57.764Z,7.70
2019-02-18T04:58:24.469Z,7.70
2019-02-18T05:00:51.247Z,7.60
2019-02-18T05:03:18.013Z,7.60
2019-02-18T05:05:46.494Z,7.60
2019-02-18T05:08:14.230Z,7.60
2019-02-18T05:10:40.909Z,7.60
2019-02-18T05:13:07.501Z,7.60
2019-02-18T05:15:34.129Z,7.60
2019-02-18T05:18:01.947Z,7.60
2019-02-18T05:20:28.895Z,7.50
2019-02-18T05:22:55.863Z,7.50
2019-02-18T05:25:22.903Z,7.50
2019-02-18T05:27:49.531Z,7.50
2019-02-18T05:30:16.340Z,7.50
2019-02-18T05:32:43.072Z,7.50
2019-02-18T05:35:09.925Z,7.50
2019-02-18T05:37:37.753Z,7.40
2019-02-18T05:40:04.777Z,7.30
2019-02-18T05:42:31.716Z,7.40
2019-02-18T05:44:58.450Z,7.40
2019-02-18T05:47:25.127Z,7.40
2019-02-18T05:49:51.891Z,7.40
2019-02-18T05:52:18.496Z,7.40
2019-02-18T05:54:45.133Z,7.40
2019-02-18T05:57:11.823Z,7.40
2019-02-18T05:59:38.498Z,7.40
2019-02-18T06:02:05.123Z,7.30
2019-02-18T06:04:32.760Z,7.30
2019-02-18T06:07:00.367Z,7.30
2019-02-18T06:09:30.065Z,7.30
2019-02-18T06:11:56.322Z,7.30
2019-02-18T06:14:24.887Z,7.30
2019-02-18T06:16:51.515Z,7.30
2019-02-18T06:19:18.104Z,7.30
2019-02-18T06:21:45.114Z,7.30
2019-02-18T06:24:11.834Z,7.30
2019-02-18T06:26:38.494Z,7.20
2019-02-18T06:29:06.689Z,7.20
2019-02-18T06:31:33.296Z,7.20
2019-02-18T06:34:01.420Z,7.20
2019-02-18T06:36:28.423Z,7.20
2019-02-18T06:38:57.660Z,7.00
2019-02-18T06:41:23.618Z,7.20
2019-02-18T06:43:50.260Z,7.20
2019-02-18T06:46:42.428Z,7.20
2019-02-18T06:49:20.533Z,7.20
2019-02-18T06:51:47.281Z,7.20
2019-02-18T06:57:02.525Z,7.30
2019-02-18T06:59:42.285Z,7.20
2019-02-18T07:02:14.371Z,7.10
2019-02-18T07:05:00.593Z,7.10
2019-02-18T07:07:49.658Z,7.10
2019-02-18T07:10:22.453Z,7.10
2019-02-18T07:12:52.383Z,7.10
2019-02-18T07:15:19.284Z,7.10
2019-02-18T07:17:46.014Z,7.10
2019-02-18T07:20:14.622Z,7.10
2019-02-18T07:22:41.452Z,7.10
2019-02-18T07:25:08.049Z,7.10
2019-02-18T07:27:34.823Z,7.10
2019-02-18T07:30:02.637Z,7.10
2019-02-18T07:32:30.692Z,7.10
2019-02-18T07:34:57.337Z,7.10
2019-02-18T07:37:24.249Z,7.10
2019-02-18T07:40:00.778Z,7.00
2019-02-18T07:42:19.681Z,7.10
2019-02-18T07:44:46.395Z,7.10
2019-02-18T07:47:14.987Z,7.10
2019-02-18T07:49:41.637Z,7.10
2019-02-18T07:52:08.380Z,7.00
2019-02-18T07:54:36.889Z,7.00
2019-02-18T07:57:03.495Z,7.10
2019-02-18T07:59:30.141Z,7.00
2019-02-18T08:01:56.951Z,7.00
2019-02-18T08:04:23.938Z,7.10
2019-02-18T08:06:50.838Z,7.00
2019-02-18T08:09:17.733Z,7.00
2019-02-18T08:11:44.785Z,7.10
2019-02-18T08:14:11.426Z,7.10
2019-02-18T08:16:38.131Z,7.00
2019-02-18T08:19:05.970Z,7.00
2019-02-18T08:21:33.096Z,7.10
2019-02-18T08:24:00.453Z,7.10
2019-02-18T08:26:28.857Z,7.10
2019-02-18T08:28:55.580Z,7.10
2019-02-18T08:31:22.336Z,7.10
2019-02-18T08:33:51.146Z,7.10
2019-02-18T08:36:17.770Z,7.10
2019-02-18T08:38:44.413Z,7.10
2019-02-18T08:41:11.222Z,7.10
2019-02-18T08:43:39.247Z,7.10
2019-02-18T08:46:05.920Z,7.10
2019-02-18T08:48:33.089Z,7.10
2019-02-18T08:50:59.880Z,7.20
2019-02-18T08:53:27.080Z,7.20
2019-02-18T08:55:54.025Z,7.20
2019-02-18T08:58:20.763Z,7.20
2019-02-18T09:00:47.415Z,7.20
2019-02-18T09:03:14.048Z,7.30
2019-02-18T09:05:40.695Z,7.30
2019-02-18T09:08:07.474Z,7.30
2019-02-18T09:10:35.376Z,7.30
2019-02-18T09:13:03.707Z,7.30
2019-02-18T09:15:31.475Z,7.30
2019-02-18T09:17:58.298Z,7.30
2019-02-18T09:20:25.708Z,7.40
2019-02-18T09:23:19.430Z,7.40
2019-02-18T09:25:48.859Z,7.40
2019-02-18T09:28:15.554Z,7.40
2019-02-18T09:30:44.979Z,7.40
2019-02-18T09:33:11.746Z,7.50
2019-02-18T09:35:38.557Z,7.50
2019-02-18T09:38:05.242Z,7.50
2019-02-18T09:40:31.894Z,7.50
2019-02-18T09:42:58.619Z,7.50
2019-02-18T09:45:25.333Z,7.60
2019-02-18T09:47:54.194Z,7.60
2019-02-18T09:50:20.706Z,7.60
2019-02-18T09:52:47.545Z,7.60
2019-02-18T09:55:14.190Z,7.70
2019-02-18T09:57:40.969Z,7.70
2019-02-18T10:00:07.931Z,7.70
2019-02-18T10:02:34.674Z,7.70
2019-02-18T10:05:01.361Z,7.80
2019-02-18T10:07:28.154Z,7.80
2019-02-18T10:09:54.771Z,7.80
2019-02-18T10:12:21.535Z,7.90
2019-02-18T10:14:48.269Z,7.90
2019-02-18T10:17:15.055Z,7.90
2019-02-18T10:19:43.088Z,7.70
2019-02-18T10:22:09.892Z,8.00
2019-02-18T10:24:36.540Z,8.00
2019-02-18T10:27:03.783Z,8.00
2019-02-18T10:29:30.372Z,8.10
2019-02-18T10:31:57.065Z,8.10
2019-02-18T10:34:23.688Z,8.20
2019-02-18T10:36:50.775Z,8.20
2019-02-18T10:39:19.444Z,8.20
2019-02-18T10:41:45.981Z,8.20
2019-02-18T10:44:12.626Z,8.30
2019-02-18T10:46:40.731Z,8.30
2019-02-18T10:49:18.891Z,8.30
2019-02-18T10:51:35.884Z,8.40
2019-02-18T10:54:02.486Z,8.40
2019-02-18T10:56:29.400Z,8.40
2019-02-18T10:58:56.004Z,8.50
2019-02-18T11:01:23.052Z,8.50
2019-02-18T11:03:49.658Z,8.60
2019-02-18T11:06:16.632Z,8.60
2019-02-18T11:08:43.266Z,8.60
2019-02-18T11:11:17.126Z,8.70
2019-02-18T11:13:39.012Z,8.70
2019-02-18T11:16:05.794Z,8.70
2019-02-18T11:18:32.704Z,8.80
2019-02-18T11:20:59.638Z,8.80
2019-02-18T11:23:26.807Z,8.80
2019-02-18T11:25:55.764Z,8.90
2019-02-18T11:28:28.723Z,8.90
2019-02-18T11:30:55.798Z,8.90
2019-02-18T11:33:22.550Z,9.00
2019-02-18T11:35:49.258Z,9.00
2019-02-18T11:38:16.530Z,9.10
2019-02-18T11:40:43.290Z,9.10
2019-02-18T11:43:09.935Z,9.10
2019-02-18T11:45:36.575Z,9.20
2019-02-18T11:48:03.157Z,9.20
2019-02-18T11:50:29.875Z,9.30
2019-02-18T11:52:56.603Z,9.30
2019-02-18T11:55:23.765Z,9.30
2019-02-18T11:57:50.787Z,9.40
2019-02-18T12:00:17.820Z,9.40
2019-02-18T12:02:44.553Z,9.40
2019-02-18T12:05:11.172Z,9.50
2019-02-18T12:07:37.919Z,9.50
2019-02-18T12:10:05.073Z,9.60
2019-02-18T12:12:31.824Z,9.60
2019-02-18T12:14:58.840Z,9.70
2019-02-18T12:17:25.454Z,9.70
2019-02-18T12:19:52.499Z,9.70
2019-02-18T12:22:19.115Z,9.80
2019-02-18T12:24:45.738Z,9.80
2019-02-18T12:27:12.431Z,9.90
2019-02-18T12:29:39.117Z,9.90
2019-02-18T12:32:05.877Z,9.90
2019-02-18T12:34:32.998Z,10.00
2019-02-18T12:36:59.611Z,10.00
2019-02-18T12:39:26.232Z,10.10
2019-02-18T12:41:52.842Z,10.10
2019-02-18T12:44:19.625Z,10.10
2019-02-18T12:46:46.284Z,9.90
2019-02-18T12:49:13.061Z,10.20
2019-02-18T12:51:39.673Z,10.30
2019-02-18T12:54:06.523Z,10.30
2019-02-18T12:56:33.259Z,10.60
2019-02-18T12:59:00.485Z,10.40
2019-02-18T13:01:27.888Z,10.40
2019-02-18T13:03:54.615Z,10.50
2019-02-18T13:06:21.425Z,10.50
2019-02-18T13:08:48.097Z,10.60
2019-02-18T13:11:15.209Z,10.60
2019-02-18T13:13:42.248Z,10.60
2019-02-18T13:16:09.409Z,10.70
2019-02-18T13:18:36.099Z,10.70
2019-02-18T13:21:02.752Z,10.80
2019-02-18T13:23:29.741Z,10.80
2019-02-18T13:25:56.508Z,10.50
2019-02-18T13:28:23.111Z,10.90
2019-02-18T13:30:49.739Z,10.90
2019-02-18T13:33:16.337Z,10.90
2019-02-18T13:35:43.016Z,11.00
2019-02-18T13:38:10.260Z,11.00
2019-02-18T13:40:37.014Z,11.00
2019-02-18T13:43:04.445Z,11.10
2019-02-18T13:45:31.191Z,11.10
2019-02-18T13:47:57.919Z,11.20
2019-02-18T13:50:24.597Z,11.20
2019-02-18T13:52:51.309Z,11.20
2019-02-18T13:55:19.511Z,11.20
2019-02-18T13:57:46.627Z,11.30
2019-02-18T14:00:17.933Z,11.30
2019-02-18T14:02:44.697Z,11.30
2019-02-18T14:05:11.474Z,11.40
2019-02-18T14:07:38.604Z,11.40
2019-02-18T14:10:05.458Z,11.40
2019-02-18T14:12:32.629Z,11.40
2019-02-18T14:14:59.866Z,11.50
2019-02-18T14:20:06.029Z,11.50
2019-02-18T14:22:32.595Z,11.60
2019-02-18T14:25:00.580Z,11.60
2019-02-18T14:27:28.217Z,11.60
2019-02-18T14:29:55.590Z,11.70
2019-02-18T14:32:22.220Z,11.70
2019-02-18T14:34:49.001Z,11.70
2019-02-18T14:37:15.757Z,11.70
2019-02-18T14:39:42.880Z,11.80
2019-02-18T14:42:09.637Z,11.80
2019-02-18T14:44:36.761Z,11.80
2019-02-18T14:47:03.749Z,11.80
2019-02-18T14:49:30.454Z,11.80
2019-02-18T14:51:57.072Z,11.90
2019-02-18T14:54:23.929Z,11.90
2019-02-18T14:56:50.831Z,11.90
2019-02-18T14:59:17.675Z,11.80
2019-02-18T15:01:44.403Z,11.90
2019-02-18T15:04:11.582Z,12.00
2019-02-18T15:06:38.518Z,12.00
2019-02-18T15:09:05.380Z,12.00
2019-02-18T15:11:32.563Z,11.70
2019-02-18T15:13:59.206Z,12.10
2019-02-18T15:16:26.046Z,12.10
2019-02-18T15:18:52.862Z,12.10
2019-02-18T15:21:20.586Z,12.10
2019-02-18T15:23:47.704Z,12.10
2019-02-18T15:26:14.812Z,12.20
2019-02-18T15:28:41.487Z,12.20
2019-02-18T15:31:08.374Z,12.20
2019-02-18T15:33:35.170Z,12.20
2019-02-18T15:36:04.584Z,12.20
2019-02-18T15:38:31.320Z,12.00
2019-02-18T15:40:59.050Z,12.20
2019-02-18T15:43:27.615Z,12.30
2019-02-18T15:45:54.931Z,12.30
2019-02-18T15:48:21.764Z,12.30
2019-02-18T15:50:48.728Z,12.30
2019-02-18T15:53:15.393Z,12.00
2019-02-18T15:55:42.163Z,12.30
2019-02-18T15:58:09.183Z,12.30
2019-02-18T16:00:35.984Z,12.30
2019-02-18T16:03:02.801Z,12.20
2019-02-18T16:05:29.671Z,12.40
2019-02-18T16:07:56.840Z,12.40
2019-02-18T16:10:23.670Z,12.40
2019-02-18T16:12:51.161Z,12.40
2019-02-18T16:15:18.071Z,12.40
2019-02-18T16:17:44.934Z,12.40
2019-02-18T16:20:11.600Z,12.40
2019-02-18T16:22:38.235Z,12.40
2019-02-18T16:25:05.201Z,12.40
2019-02-18T16:27:31.957Z,12.40
2019-02-18T16:29:58.685Z,12.40
2019-02-18T16:32:27.333Z,12.40
2019-02-18T16:34:56.452Z,12.30
2019-02-18T16:37:23.957Z,12.40
2019-02-18T16:39:50.789Z,12.40
2019-02-18T16:42:17.640Z,12.40
2019-02-18T16:44:44.239Z,12.40
2019-02-18T16:47:10.888Z,12.10
2019-02-18T16:49:37.671Z,12.40
2019-02-18T16:52:06.418Z,12.40
2019-02-18T16:54:33.183Z,12.40
2019-02-18T16:56:59.803Z,12.40
2019-02-18T16:59:27.583Z,12.40
2019-02-18T17:01:54.363Z,12.40
2019-02-18T17:04:21.170Z,12.40
2019-02-18T17:06:47.917Z,12.40
2019-02-18T17:09:14.627Z,12.40
2019-02-18T17:11:42.577Z,12.00
2019-02-18T17:14:09.477Z,12.40
2019-02-18T17:16:36.491Z,12.40
2019-02-18T17:19:04.500Z,12.30
2019-02-18T17:21:31.337Z,12.30
2019-02-18T17:23:57.951Z,12.30
2019-02-18T17:26:24.799Z,12.30
2019-02-18T17:28:51.824Z,12.30
2019-02-18T17:31:20.602Z,12.30
2019-02-18T17:33:47.212Z,12.30
2019-02-18T17:36:16.860Z,12.20
2019-02-18T17:38:44.284Z,12.20
2019-02-18T17:41:11.146Z,12.20
2019-02-18T17:43:39.806Z,12.20
2019-02-18T17:46:07.005Z,12.20
2019-02-18T17:48:33.787Z,12.20
2019-02-18T17:51:00.781Z,12.10
2019-02-18T17:53:27.682Z,12.10
2019-02-18T17:55:54.483Z,12.10
2019-02-18T17:58:21.176Z,12.10
2019-02-18T18:00:50.109Z,12.10
2019-02-18T18:03:17.252Z,12.00
2019-02-18T18:05:44.658Z,12.00
2019-02-18T18:08:11.369Z,12.00
2019-02-18T18:10:39.756Z,12.00
2019-02-18T18:13:08.008Z,12.00
2019-02-18T18:15:34.819Z,12.00
2019-02-18T18:18:01.790Z,11.90
2019-02-18T18:20:28.586Z,11.90
2019-02-18T18:22:55.556Z,11.90
2019-02-18T18:25:22.105Z,11.90
2019-02-18T18:27:49.092Z,11.90
2019-02-18T18:30:16.090Z,11.80
2019-02-18T18:32:45.163Z,11.80
2019-02-18T18:35:11.983Z,11.80
2019-02-18T18:37:38.724Z,11.80
2019-02-18T18:40:06.222Z,11.70
2019-02-18T18:42:32.914Z,11.70
2019-02-18T18:44:59.730Z,11.70
2019-02-18T18:47:26.789Z,11.70
2019-02-18T18:49:54.579Z,11.70
2019-02-18T18:52:21.384Z,11.60
2019-02-18T18:54:48.429Z,11.60
2019-02-18T18:57:15.459Z,11.60
2019-02-18T18:59:42.200Z,11.60
2019-02-18T19:02:09.029Z,11.50
2019-02-18T19:04:35.963Z,11.50
2019-02-18T19:07:04.071Z,11.50
2019-02-18T19:09:30.817Z,11.50
2019-02-18T19:11:57.499Z,11.40
2019-02-18T19:14:24.736Z,11.40
2019-02-18T19:16:51.383Z,11.40
2019-02-18T19:19:18.098Z,11.40
2019-02-18T19:21:45.041Z,11.30
2019-02-18T19:24:12.896Z,11.30
2019-02-18T19:26:40.635Z,11.30
2019-02-18T19:29:07.355Z,11.30
2019-02-18T19:31:34.589Z,11.20
2019-02-18T19:34:01.301Z,11.20
2019-02-18T19:36:29.864Z,11.20
2019-02-18T19:38:56.853Z,11.20
2019-02-18T19:41:23.614Z,11.20
2019-02-18T19:43:50.830Z,11.10
2019-02-18T19:46:17.679Z,11.10
2019-02-18T19:48:45.635Z,11.10
2019-02-18T19:51:12.281Z,11.10
2019-02-18T19:53:39.209Z,11.10
2019-02-18T19:56:07.034Z,11.00
2019-02-18T19:58:33.717Z,11.00
2019-02-18T20:01:00.440Z,11.00
2019-02-18T20:03:28.293Z,11.00
2019-02-18T20:05:58.851Z,10.90
2019-02-18T20:08:30.517Z,10.90
2019-02-18T20:11:01.845Z,10.90
2019-02-18T20:13:30.025Z,10.90
2019-02-18T20:15:58.124Z,10.90
2019-02-18T20:18:24.760Z,10.80
2019-02-18T20:20:52.194Z,10.80
2019-02-18T20:23:20.676Z,10.80
2019-02-18T20:25:47.337Z,10.80
2019-02-18T20:28:14.081Z,10.80
2019-02-18T20:30:40.728Z,10.80
2019-02-18T20:33:07.319Z,10.70
2019-02-18T20:35:34.227Z,10.70
2019-02-18T20:38:01.261Z,10.70
2019-02-18T20:40:29.032Z,10.70
2019-02-18T20:42:58.172Z,10.70
2019-02-18T20:45:25.710Z,10.70
2019-02-18T20:47:52.282Z,10.60
2019-02-18T20:50:18.935Z,10.60
2019-02-18T20:52:46.114Z,10.60
2019-02-18T20:55:13.700Z,10.60
2019-02-18T20:57:44.391Z,10.60
2019-02-18T21:00:19.578Z,10.60
2019-02-18T21:02:46.409Z,10.60
2019-02-18T21:05:18.790Z,10.60
2019-02-18T21:10:24.748Z,10.40
2019-02-18T21:12:51.449Z,10.50
2019-02-18T21:15:18.458Z,10.50
2019-02-18T21:17:45.287Z,10.50
2019-02-18T21:20:11.944Z,10.50
2019-02-18T21:22:38.642Z,10.50
2019-02-18T21:25:05.611Z,10.50
2019-02-18T21:27:32.440Z,10.50
2019-02-18T21:29:59.767Z,10.50
2019-02-18T21:32:26.735Z,10.30
2019-02-18T21:34:53.576Z,10.30
2019-02-18T21:37:20.381Z,10.40
2019-02-18T21:39:46.989Z,10.40
2019-02-18T21:42:14.027Z,10.40
2019-02-18T21:44:42.055Z,10.40
2019-02-18T21:47:08.682Z,10.40
2019-02-18T21:49:37.275Z,10.40
2019-02-18T21:52:03.792Z,10.40
2019-02-18T21:54:30.476Z,10.40
2019-02-18T21:57:07.448Z,10.40
2019-02-18T21:59:52.995Z,10.40
2019-02-18T22:02:19.936Z,10.40
2019-02-18T22:04:46.540Z,10.40
2019-02-18T22:07:13.314Z,10.30
2019-02-18T22:09:41.340Z,10.30
2019-02-18T22:12:10.218Z,10.30
2019-02-18T22:14:36.987Z,10.30
2019-02-18T22:17:03.632Z,10.30
2019-02-18T22:19:30.272Z,10.30
2019-02-18T22:21:57.200Z,10.30
2019-02-18T22:24:24.474Z,10.30
2019-02-18T22:26:51.021Z,10.30
2019-02-18T22:29:18.214Z,10.30
2019-02-18T22:31:45.562Z,10.30
2019-02-18T22:34:13.006Z,10.30
2019-02-18T22:36:39.957Z,10.30
2019-02-18T22:39:08.458Z,10.30
2019-02-18T22:41:35.122Z,10.30
2019-02-18T22:44:03.618Z,10.30
2019-02-18T22:46:32.442Z,10.30
2019-02-18T22:48:59.197Z,10.30
2019-02-18T22:51:26.362Z,10.30
2019-02-18T22:53:53.455Z,10.30
2019-02-18T22:56:21.954Z,10.30
2019-02-18T22:58:48.808Z,10.30
2019-02-18T23:01:16.254Z,10.20
2019-02-18T23:03:42.999Z,10.20
2019-02-18T23:06:11.675Z,10.20
2019-02-18T23:08:38.640Z,10.20
2019-02-18T23:11:07.119Z,10.20
2019-02-18T23:13:34.951Z,10.20
2019-02-18T23:16:01.577Z,10.20
2019-02-18T23:18:28.277Z,10.20
2019-02-18T23:20:55.108Z,10.20
2019-02-18T23:23:22.083Z,10.20
2019-02-18T23:25:50.165Z,10.20
2019-02-18T23:28:17.337Z,10.20
2019-02-18T23:30:44.151Z,10.20
2019-02-18T23:33:10.993Z,10.20
2019-02-18T23:35:38.997Z,10.20
2019-02-18T23:38:06.417Z,10.20
2019-02-18T23:40:33.147Z,10.20
2019-02-18T23:43:00.100Z,10.20
2019-02-18T23:45:28.187Z,10.20
2019-02-18T23:47:54.915Z,10.20
2019-02-18T23:50:21.675Z,10.20
2019-02-18T23:52:48.793Z,10.20
2019-02-18T23:55:15.635Z,10.10
2019-02-18T23:57:42.374Z,10.10
